Aviation Digital Data Service (ADDS)

Output produced by METARs form (1433 UTC 23 January 2019)
found at http://www.aviationweather.gov/metar/data/
 
Forecast for: WAPP (AMBON/PATTIMURA , ID)
Text: TAF WAPP 231100Z 2312/2412 34008KT 9999 SCT020
Forecast period: 1200 UTC 23 January 2019 to 1200 UTC 24 January 2019
Forecast type: FROM: standard forecast or significant change
Winds: from the NNW (340 degrees) at 9 MPH (8 knots; 4.1 m/s)
Visibility: 6 or more miles 10+ km)
Ceiling: at least 12,000 feet AGL
Clouds: scattered clouds at 2000 feet AGL
Weather: no significant weather forecast for this period